createdAt,value
2018-12-11T00:02:05.194Z,2.73
2018-12-11T00:07:09.496Z,2.63
2018-12-11T00:12:11.890Z,2.59
2018-12-11T00:17:14.291Z,2.58
2018-12-11T00:22:16.562Z,2.55
2018-12-11T00:27:18.961Z,2.57
2018-12-11T00:32:21.287Z,2.66
2018-12-11T00:37:23.578Z,2.69
2018-12-11T00:42:25.977Z,2.66
2018-12-11T00:47:28.246Z,2.65
2018-12-11T00:52:30.526Z,2.68
2018-12-11T00:57:32.885Z,2.62
2018-12-11T01:02:35.154Z,2.57
2018-12-11T01:07:37.451Z,2.43
2018-12-11T01:12:39.827Z,2.54
2018-12-11T01:17:42.081Z,2.58
2018-12-11T01:22:44.927Z,2.63
2018-12-11T01:27:47.265Z,2.67
2018-12-11T01:32:49.510Z,2.77
2018-12-11T01:37:51.774Z,2.76
2018-12-11T01:42:54.003Z,2.86
2018-12-11T01:47:56.241Z,2.90
2018-12-11T01:52:58.595Z,2.98
2018-12-11T01:58:00.917Z,2.81
2018-12-11T02:03:03.449Z,2.67
2018-12-11T02:08:05.669Z,2.67
2018-12-11T02:13:07.932Z,2.66
2018-12-11T02:18:10.157Z,2.68
2018-12-11T02:23:12.403Z,2.78
2018-12-11T02:28:14.690Z,2.76
2018-12-11T02:33:16.944Z,2.82
2018-12-11T02:38:19.168Z,2.91
2018-12-11T02:43:21.423Z,2.97
2018-12-11T02:48:23.684Z,3.08
2018-12-11T02:53:26.014Z,3.00
2018-12-11T02:58:28.327Z,2.99
2018-12-11T03:03:30.589Z,2.98
2018-12-11T03:08:32.892Z,3.00
2018-12-11T03:13:35.217Z,2.95
2018-12-11T03:18:37.549Z,3.01
2018-12-11T03:23:39.990Z,3.03
2018-12-11T03:28:42.267Z,3.10
2018-12-11T03:33:44.679Z,3.02
2018-12-11T03:38:47.002Z,3.05
2018-12-11T03:43:49.286Z,3.04
2018-12-11T03:48:51.673Z,3.01
2018-12-11T03:53:54.082Z,2.93
2018-12-11T03:58:56.345Z,2.93
2018-12-11T04:03:58.687Z,2.95
2018-12-11T04:09:12.267Z,2.98
2018-12-11T04:14:14.859Z,2.96
2018-12-11T04:19:17.343Z,2.94
2018-12-11T04:24:19.607Z,2.88
2018-12-11T04:29:23.890Z,2.85
2018-12-11T04:34:26.331Z,2.82
2018-12-11T04:39:33.931Z,2.87
2018-12-11T04:44:33.120Z,2.84
2018-12-11T04:49:35.479Z,2.86
2018-12-11T04:54:37.829Z,2.86
2018-12-11T04:59:40.379Z,2.82
2018-12-11T05:04:42.673Z,2.75
2018-12-11T05:09:44.940Z,2.66
2018-12-11T05:14:47.267Z,2.65
2018-12-11T05:19:49.555Z,2.65
2018-12-11T05:24:51.945Z,2.65
2018-12-11T05:29:54.208Z,2.58
2018-12-11T05:34:56.484Z,2.60
2018-12-11T05:39:58.719Z,2.60
2018-12-11T05:45:00.983Z,3.23
2018-12-11T05:50:04.009Z,2.84
2018-12-11T05:55:06.524Z,2.81
2018-12-11T06:00:09.878Z,2.80
2018-12-11T06:05:12.543Z,2.69
2018-12-11T06:10:14.796Z,2.69
2018-12-11T06:15:17.203Z,2.72
2018-12-11T06:20:19.552Z,2.75
2018-12-11T06:25:21.813Z,2.80
2018-12-11T06:30:24.127Z,2.83
2018-12-11T06:35:26.536Z,2.87
2018-12-11T06:40:28.899Z,2.80
2018-12-11T06:45:31.185Z,2.87
2018-12-11T06:50:33.464Z,2.85
2018-12-11T06:55:36.783Z,2.76
2018-12-11T07:00:39.073Z,2.76
2018-12-11T07:05:41.376Z,2.82
2018-12-11T07:10:43.880Z,2.84
2018-12-11T07:15:46.287Z,2.89
2018-12-11T07:20:48.552Z,2.93
2018-12-11T07:25:51.679Z,2.93
2018-12-11T07:30:54.008Z,2.93
2018-12-11T07:35:56.402Z,2.91
2018-12-11T07:40:58.683Z,2.94
2018-12-11T07:46:00.934Z,2.99
2018-12-11T07:51:03.325Z,2.99
2018-12-11T07:56:05.620Z,3.01
2018-12-11T08:01:07.875Z,2.99
2018-12-11T08:06:10.136Z,3.00
2018-12-11T08:11:12.475Z,3.02
2018-12-11T08:16:17.743Z,3.00
2018-12-11T08:21:20.231Z,3.03
2018-12-11T08:26:22.970Z,3.06
2018-12-11T08:31:26.467Z,3.08
2018-12-11T08:36:28.787Z,3.06
2018-12-11T08:41:31.096Z,3.08
2018-12-11T08:46:33.403Z,3.07
2018-12-11T08:51:35.724Z,3.07
2018-12-11T08:56:38.114Z,3.13
2018-12-11T09:01:40.599Z,3.19
2018-12-11T09:06:42.870Z,3.18
2018-12-11T09:11:45.183Z,3.19
2018-12-11T09:16:47.439Z,3.21
2018-12-11T09:21:49.705Z,3.26
2018-12-11T09:26:51.968Z,3.29
2018-12-11T09:31:54.208Z,3.28
2018-12-11T09:36:56.527Z,3.29
2018-12-11T09:41:58.847Z,3.32
2018-12-11T09:47:01.132Z,3.31
2018-12-11T09:52:10.347Z,3.25
2018-12-11T09:57:12.644Z,3.28
2018-12-11T10:02:15.039Z,3.27
2018-12-11T10:07:17.383Z,3.29
2018-12-11T10:12:19.707Z,3.32
2018-12-11T10:17:22.080Z,3.32
2018-12-11T10:22:24.356Z,3.33
2018-12-11T10:27:33.587Z,3.36
2018-12-11T10:32:35.859Z,3.37
2018-12-11T10:37:38.127Z,3.41
2018-12-11T10:42:40.440Z,3.44
2018-12-11T10:47:42.903Z,3.50
2018-12-11T10:52:45.174Z,3.53
2018-12-11T10:57:47.441Z,3.55
2018-12-11T11:02:55.347Z,3.57
2018-12-11T11:07:58.887Z,3.59
2018-12-11T11:13:01.215Z,3.60
2018-12-11T11:18:03.588Z,3.61
2018-12-11T11:23:06.088Z,3.59
2018-12-11T11:28:08.356Z,3.60
2018-12-11T11:33:10.620Z,3.60
2018-12-11T11:38:12.865Z,3.60
2018-12-11T11:43:15.155Z,3.57
2018-12-11T11:48:17.423Z,3.56
2018-12-11T11:53:19.659Z,3.58
2018-12-11T11:58:21.892Z,3.54
2018-12-11T12:03:24.258Z,3.53
2018-12-11T12:08:26.899Z,3.51
2018-12-11T12:13:31.246Z,3.54
2018-12-11T12:18:33.485Z,3.52
2018-12-11T12:23:35.754Z,3.51
2018-12-11T12:28:37.995Z,3.50
2018-12-11T12:33:40.267Z,3.53
2018-12-11T12:38:42.564Z,3.51
2018-12-11T12:43:44.857Z,3.51
2018-12-11T12:48:47.108Z,3.55
2018-12-11T12:53:49.385Z,3.58
2018-12-11T12:58:51.758Z,3.61
2018-12-11T13:03:54.340Z,3.60
2018-12-11T13:08:57.088Z,3.65
2018-12-11T13:13:59.555Z,3.62
2018-12-11T13:19:02.052Z,3.61
2018-12-11T13:24:04.315Z,3.60
2018-12-11T13:29:07.619Z,3.59
2018-12-11T13:34:09.968Z,3.57
2018-12-11T13:39:12.363Z,3.56
2018-12-11T13:44:14.976Z,3.56
2018-12-11T13:49:17.282Z,3.56
2018-12-11T13:54:19.563Z,3.53
2018-12-11T13:59:21.893Z,3.47
2018-12-11T14:04:24.189Z,3.44
2018-12-11T14:09:35.236Z,3.50
2018-12-11T14:14:37.571Z,3.45
2018-12-11T14:19:39.968Z,3.44
2018-12-11T14:24:42.214Z,3.50
2018-12-11T14:29:44.468Z,3.45
2018-12-11T14:34:46.795Z,3.54
2018-12-11T14:39:49.107Z,3.49
2018-12-11T14:44:51.347Z,3.48
2018-12-11T14:49:53.984Z,3.53
2018-12-11T14:54:56.271Z,3.57
2018-12-11T14:59:59.655Z,3.56
2018-12-11T15:05:02.277Z,3.51
2018-12-11T15:10:07.175Z,3.54
2018-12-11T15:15:09.955Z,3.49
2018-12-11T15:20:12.319Z,3.49
2018-12-11T15:25:14.594Z,3.53
2018-12-11T15:30:17.078Z,3.54
2018-12-11T15:35:19.326Z,3.48
2018-12-11T15:40:21.600Z,3.51
2018-12-11T15:45:23.863Z,3.57
2018-12-11T15:50:26.227Z,3.52
2018-12-11T15:55:28.506Z,3.48
2018-12-11T16:00:30.797Z,3.52
2018-12-11T16:05:33.062Z,3.50
2018-12-11T16:10:35.312Z,3.48
2018-12-11T16:15:37.588Z,3.45
2018-12-11T16:20:39.880Z,3.44
2018-12-11T16:25:42.110Z,3.45
2018-12-11T16:30:44.673Z,3.43
2018-12-11T16:35:47.930Z,3.41
2018-12-11T16:40:51.935Z,3.40
2018-12-11T16:45:54.178Z,3.45
2018-12-11T16:50:56.515Z,3.37
2018-12-11T16:55:58.744Z,3.41
2018-12-11T17:01:00.990Z,3.43
2018-12-11T17:06:03.283Z,3.42
2018-12-11T17:11:05.611Z,3.47
2018-12-11T17:16:14.775Z,3.48
2018-12-11T17:21:17.099Z,3.52
2018-12-11T17:26:19.635Z,3.43
2018-12-11T17:31:21.889Z,3.51
2018-12-11T17:36:24.384Z,3.46
2018-12-11T17:41:26.720Z,3.48
2018-12-11T17:46:29.028Z,3.43
2018-12-11T17:51:31.379Z,3.45
2018-12-11T17:56:34.015Z,3.46
2018-12-11T18:01:37.989Z,3.43
2018-12-11T18:06:40.348Z,3.42
2018-12-11T18:11:42.594Z,3.36
2018-12-11T18:16:45.309Z,3.38
2018-12-11T18:21:47.814Z,3.36
2018-12-11T18:26:50.563Z,3.36
2018-12-11T18:31:53.466Z,3.34
2018-12-11T18:36:57.146Z,3.35
2018-12-11T18:41:59.420Z,3.32
2018-12-11T18:47:01.705Z,3.33
2018-12-11T18:52:04.095Z,3.36
2018-12-11T18:57:06.503Z,3.27
2018-12-11T19:02:08.985Z,3.28
2018-12-11T19:07:11.248Z,3.21
2018-12-11T19:12:15.562Z,3.25
2018-12-11T19:17:17.835Z,3.26
2018-12-11T19:22:20.123Z,3.25
2018-12-11T19:27:22.652Z,3.25
2018-12-11T19:32:25.166Z,3.23
2018-12-11T19:37:27.415Z,3.20
2018-12-11T19:42:29.747Z,3.17
2018-12-11T19:47:32.154Z,3.13
2018-12-11T19:52:39.857Z,3.14
2018-12-11T19:57:42.112Z,3.12
2018-12-11T20:02:44.408Z,3.11
2018-12-11T20:07:51.282Z,3.09
2018-12-11T20:12:53.871Z,3.08
2018-12-11T20:17:56.494Z,3.04
2018-12-11T20:22:58.752Z,3.02
2018-12-11T20:28:01.031Z,3.00
2018-12-11T20:33:03.423Z,2.95
2018-12-11T20:38:05.686Z,2.98
2018-12-11T20:43:08.047Z,2.95
2018-12-11T20:48:10.401Z,2.99
2018-12-11T20:53:12.647Z,2.97
2018-12-11T20:58:14.915Z,2.92
2018-12-11T21:03:17.277Z,2.87
2018-12-11T21:08:21.926Z,2.85
2018-12-11T21:13:24.225Z,2.84
2018-12-11T21:18:26.839Z,2.90
2018-12-11T21:23:29.174Z,2.98
2018-12-11T21:28:31.529Z,2.94
2018-12-11T21:33:34.538Z,2.94
2018-12-11T21:38:36.836Z,2.95
2018-12-11T21:43:39.149Z,2.93
2018-12-11T21:48:41.426Z,2.91
2018-12-11T21:53:43.687Z,2.83
2018-12-11T21:58:46.255Z,2.82
2018-12-11T22:03:49.381Z,2.79
2018-12-11T22:08:51.751Z,2.76
2018-12-11T22:13:54.055Z,2.71
2018-12-11T22:18:56.332Z,2.67
2018-12-11T22:23:58.685Z,2.67
2018-12-11T22:29:00.932Z,2.59
2018-12-11T22:34:03.269Z,2.58
2018-12-11T22:39:07.364Z,2.53
2018-12-11T22:44:09.635Z,2.52
2018-12-11T22:49:11.925Z,2.49
2018-12-11T22:54:14.527Z,2.48
2018-12-11T22:59:16.824Z,2.48
2018-12-11T23:04:19.175Z,2.47
2018-12-11T23:09:21.428Z,2.51
2018-12-11T23:14:23.731Z,2.56
2018-12-11T23:19:26.093Z,2.50
2018-12-11T23:24:28.342Z,2.50
2018-12-11T23:29:30.603Z,2.57
2018-12-11T23:34:32.875Z,2.55
2018-12-11T23:39:36.513Z,2.54
2018-12-11T23:44:38.847Z,2.48
2018-12-11T23:49:41.114Z,2.47
2018-12-11T23:54:43.479Z,2.44
2018-12-11T23:59:45.763Z,2.50
